Norris Observed Data For Previous 48 Hours

Caption
Day and Hour Reservoir Elevation (behind dam)* Tailwater Elevation (below dam)* Average Hourly Discharge*
1/19/2019 2 AM EST 1,001.80 825.24 4,241
1/19/2019 3 AM EST 1,001.80 825.20 4,240
1/19/2019 4 AM EST 1,001.80 825.15 4,254
1/19/2019 5 AM EST 1,001.80 825.17 4,250
1/19/2019 6 AM EST 1,001.81 825.26 4,247
1/19/2019 7 AM EST 1,001.82 825.15 4,243
1/19/2019 8 AM EST 1,001.81 825.15 4,254
1/19/2019 9 AM EST 1,001.84 825.13 4,250
1/19/2019 10 AM EST 1,001.84 825.14 4,255
1/19/2019 11 AM EST 1,001.83 825.17 4,251
1/19/2019 12 PM EST 1,001.85 825.20 4,251
1/19/2019 1 PM EST 1,001.86 825.21 4,253
1/19/2019 2 PM EST 1,001.91 825.22 4,249
1/19/2019 3 PM EST 1,001.91 825.24 4,273
1/19/2019 4 PM EST 1,001.93 825.20 4,283
1/19/2019 5 PM EST 1,001.96 825.20 4,282
1/19/2019 6 PM EST 1,002.03 825.23 4,274
1/19/2019 7 PM EST 1,002.12 825.27 4,284
1/19/2019 8 PM EST 1,002.15 825.23 4,285
1/19/2019 9 PM EST 1,002.17 825.27 4,288
1/19/2019 10 PM EST 1,002.27 825.25 4,286
1/19/2019 11 PM EST 1,002.32 822.84 1,849
1/20/2019 12 AM EST 1,002.38 822.00 20
1/20/2019 1 AM EST 1,002.41 821.80 20
1/20/2019 2 AM EST 1,002.49 821.71 20
1/20/2019 3 AM EST 1,002.59 821.64 20
1/20/2019 4 AM EST 1,002.68 821.56 20
1/20/2019 5 AM EST 1,002.73 821.50 20
1/20/2019 6 AM EST 1,002.80 821.42 20
1/20/2019 7 AM EST 1,002.87 821.35 20
1/20/2019 8 AM EST 1,002.91 824.84 3,338
1/20/2019 9 AM EST 1,002.98 825.24 4,298
1/20/2019 10 AM EST 1,003.03 825.24 4,286
1/20/2019 11 AM EST 1,003.11 825.26 4,293
1/20/2019 12 PM EST 1,003.14 825.27 4,288
1/20/2019 1 PM EST 1,003.19 825.25 4,289
1/20/2019 2 PM EST 1,003.25 825.20 4,283
1/20/2019 3 PM EST 1,003.29 825.16 4,288
1/20/2019 4 PM EST 1,003.37 825.16 4,287
1/20/2019 5 PM EST 1,003.42 825.23 4,300
1/20/2019 6 PM EST 1,003.46 825.22 4,296
1/20/2019 7 PM EST 1,003.51 825.21 4,299
1/20/2019 8 PM EST 1,003.57 825.24 4,296
1/20/2019 9 PM EST 1,003.65 825.25 4,304
1/20/2019 10 PM EST 1,003.69 825.20 4,303
1/20/2019 11 PM EST 1,003.76 825.23 4,312
1/21/2019 12 AM EST 1,003.83 825.24 4,298
1/21/2019 1 AM EST 1,003.89 825.17 4,310
1/21/2019 2 AM EST 1,003.95 825.20 4,301
1/21/2019 3 AM EST 1,004.01 825.18 4,314
1/21/2019 4 AM EST 1,004.07 825.15 4,312
1/21/2019 5 AM EST 1,004.13 825.22 4,312

Elevations are in feet above sea level. Discharges are in cubic feet per second and are reported at the end of the hour.